Meteo Giornale » Osservazioni meteo Italia » Roma Fiumicino

ore: 02:50 - Osservazioni Meteo Roma Fiumicino
Lat. 41° 48' N Lon. 12° 14' E Alt. 2 metri s.l.m.

sereno Europe/Rome

18 °C

Sereno

Temp. 24 Ore

14 °C

25 °C

Nord

3.7 Km/h

Dew point 17 °C

Umidità 93 %

Visibilità  10 Km

Il sole sorge alle ore 05:40

Il sole tramonta alle ore 20:35

Data e Ora Cielo e Fenomeni T °C DP °C Um. % Pres. hPa Vis. km Vento km/h
Oggi h: 02:50 sereno Sereno 18 17 93 1015 10 N 3.7
Oggi h: 02:20 sereno Sereno 18 17 93 1015 10 N 5.5
Oggi h: 01:50 sereno Sereno 18 17 93 1016 10 O/SO 9.3
Oggi h: 01:20 sereno Sereno 18 17 93 1016 10 N 5.5
Oggi h: 00:50 sereno Sereno 18 16 88 1016 10 N 0
Oggi h: 00:20 sereno Sereno 19 17 88 1016 10 N 5.5
Ieri h: 23:50 sereno Sereno 18 17 93 1017 10 O/SO 7.4
Ieri h: 23:20 sereno Sereno 19 18 93 1017 10 N 3.7
Ieri h: 22:50 sereno Sereno 19 17 88 1017 10 N 3.7
Ieri h: 22:20 sereno Sereno 19 17 88 1017 10 O 9.3
Ieri h: 21:50 sereno Sereno 19 16 82 1017 10 N 5.5
Ieri h: 21:20 sereno Sereno 20 16 77 1016 10 O/SO 9.3
Ieri h: 20:50 sereno Sereno 20 15 72 1016 10 N 5.5
Ieri h: 20:20 sereno Sereno 20 16 77 1016 10 O 13
Ieri h: 19:50 sereno Sereno 21 15 68 1016 10 O 13
Ieri h: 19:20 sereno Sereno 22 14 60 1016 10 O 18.5
Ieri h: 18:50 sereno Sereno 22 14 60 1016 10 O 11.1
Ieri h: 18:20 sereno Sereno 22 13 56 1016 10 O 16.7
Ieri h: 17:50 sereno Sereno 23 12 49 1016 10 O 18.5
Ieri h: 17:20 sereno Sereno 23 13 53 1016 10 O 22.2
Ieri h: 16:50 sereno Sereno 23 13 53 1016 10 O 18.5
Ieri h: 16:20 sereno Sereno 22 14 60 1017 10 O/NO 18.5
Ieri h: 15:50 sereno Sereno 22 15 64 1017 10 O/NO 18.5
Ieri h: 15:20 sereno Sereno 23 14 56 1017 10 O 20.3
Ieri h: 14:50 sereno Sereno 24 14 53 1017 10 O 18.5
Ieri h: 14:20 sereno Sereno 23 15 60 1017 10 O 14.8
Ieri h: 13:50 sereno Sereno 23 15 60 1018 10 O 16.7
Ieri h: 13:20 sereno Sereno 22 15 64 1018 10 O 18.5
Ieri h: 12:50 sereno Sereno 23 16 64 1018 10 O 16.7
Ieri h: 12:20 sereno Sereno 23 15 60 1018 10 O 16.7
Ieri h: 11:50 sereno Sereno 23 15 60 1018 10 O 14.8
Ieri h: 11:20 sereno Sereno 24 15 57 1018 10 O 13
Ieri h: 10:50 sereno Sereno 23 15 60 1018 10 O 11.1
Ieri h: 10:20 sereno Sereno 25 14 50 1018 10 O 7.4
Ieri h: 09:50 sereno Sereno 24 14 53 1018 10 N 3.7
Ieri h: 09:20 sereno Sereno 23 14 56 1018 10 N 3.7
Ieri h: 08:50 sereno Sereno 22 15 64 1018 10 N 5.5
Ieri h: 08:20 sereno Sereno 20 15 72 1018 10 NE 9.3
Ieri h: 07:50 sereno Sereno 19 15 77 1018 10 N 3.7
Ieri h: 07:20 sereno Sereno 18 15 82 1018 10 N 5.5
Ieri h: 06:50 sereno Sereno 15 14 93 1018 10 N 3.7
Ieri h: 06:20 sereno Sereno 14 13 93 1018 10 N 3.7
Ieri h: 05:50 sereno Sereno 14 14 100 1018 10 N 1.8
Ieri h: 05:20 sereno Sereno 14 13 93 1018 10 N 5.5
Ieri h: 04:50 sereno Sereno 14 13 93 1018 10 N 3.7
Ieri h: 04:20 sereno Sereno 15 14 93 1018 10 N 5.5
Ieri h: 03:50 sereno Sereno 15 14 93 1018 10 N 5.5